sensor_id;sensor_type;location;lat;lon;timestamp;P1;durP1;ratioP1;P2;durP2;ratioP2
6852;SDS011;3465;42.144;24.722;2022-10-16T00:01:07;11.10;;;6.13;;
6852;SDS011;3465;42.144;24.722;2022-10-16T00:03:38;8.33;;;5.63;;
6852;SDS011;3465;42.144;24.722;2022-10-16T00:06:04;10.03;;;5.50;;
6852;SDS011;3465;42.144;24.722;2022-10-16T00:08:31;9.87;;;5.30;;
6852;SDS011;3465;42.144;24.722;2022-10-16T00:11:10;9.93;;;5.70;;
6852;SDS011;3465;42.144;24.722;2022-10-16T00:13:46;9.67;;;5.37;;
6852;SDS011;3465;42.144;24.722;2022-10-16T00:16:16;10.50;;;5.60;;
6852;SDS011;3465;42.144;24.722;2022-10-16T00:18:43;11.50;;;5.43;;
6852;SDS011;3465;42.144;24.722;2022-10-16T00:21:09;8.37;;;5.73;;
6852;SDS011;3465;42.144;24.722;2022-10-16T00:23:43;11.63;;;5.87;;
6852;SDS011;3465;42.144;24.722;2022-10-16T00:26:10;9.67;;;6.03;;
6852;SDS011;3465;42.144;24.722;2022-10-16T00:28:37;8.33;;;5.73;;
6852;SDS011;3465;42.144;24.722;2022-10-16T00:31:07;13.00;;;6.03;;
6852;SDS011;3465;42.144;24.722;2022-10-16T00:33:34;12.60;;;5.70;;
6852;SDS011;3465;42.144;24.722;2022-10-16T00:36:01;8.23;;;5.37;;
6852;SDS011;3465;42.144;24.722;2022-10-16T00:38:28;11.50;;;5.77;;
6852;SDS011;3465;42.144;24.722;2022-10-16T00:40:53;8.50;;;5.67;;
6852;SDS011;3465;42.144;24.722;2022-10-16T00:45:59;12.57;;;5.73;;
6852;SDS011;3465;42.144;24.722;2022-10-16T00:48:29;8.67;;;5.67;;
6852;SDS011;3465;42.144;24.722;2022-10-16T00:50:55;8.00;;;5.53;;
6852;SDS011;3465;42.144;24.722;2022-10-16T00:53:22;11.80;;;6.00;;
6852;SDS011;3465;42.144;24.722;2022-10-16T00:55:50;13.70;;;6.20;;
6852;SDS011;3465;42.144;24.722;2022-10-16T00:58:16;14.50;;;6.63;;
6852;SDS011;3465;42.144;24.722;2022-10-16T01:00:41;11.57;;;6.87;;
6852;SDS011;3465;42.144;24.722;2022-10-16T01:09:14;10.77;;;6.57;;
6852;SDS011;3465;42.144;24.722;2022-10-16T01:11:48;16.23;;;7.17;;
6852;SDS011;3465;42.144;24.722;2022-10-16T01:14:17;12.70;;;6.93;;
6852;SDS011;3465;42.144;24.722;2022-10-16T01:17:01;12.10;;;7.23;;
6852;SDS011;3465;42.144;24.722;2022-10-16T01:19:50;15.70;;;7.60;;
6852;SDS011;3465;42.144;24.722;2022-10-16T01:22:20;15.30;;;7.20;;
6852;SDS011;3465;42.144;24.722;2022-10-16T01:24:51;11.13;;;7.20;;
6852;SDS011;3465;42.144;24.722;2022-10-16T01:32:24;16.63;;;6.97;;
6852;SDS011;3465;42.144;24.722;2022-10-16T01:37:32;13.80;;;7.87;;
6852;SDS011;3465;42.144;24.722;2022-10-16T01:40:02;12.83;;;8.67;;
6852;SDS011;3465;42.144;24.722;2022-10-16T01:42:34;14.40;;;9.43;;
6852;SDS011;3465;42.144;24.722;2022-10-16T01:45:02;19.17;;;10.17;;
6852;SDS011;3465;42.144;24.722;2022-10-16T01:47:31;17.23;;;11.13;;
6852;SDS011;3465;42.144;24.722;2022-10-16T01:49:57;23.83;;;11.37;;
6852;SDS011;3465;42.144;24.722;2022-10-16T01:52:25;25.50;;;10.00;;
6852;SDS011;3465;42.144;24.722;2022-10-16T01:54:54;14.80;;;7.60;;
6852;SDS011;3465;42.144;24.722;2022-10-16T01:57:21;12.50;;;8.33;;
6852;SDS011;3465;42.144;24.722;2022-10-16T01:59:51;26.60;;;8.53;;
6852;SDS011;3465;42.144;24.722;2022-10-16T02:02:20;15.57;;;8.47;;
6852;SDS011;3465;42.144;24.722;2022-10-16T02:04:58;15.17;;;9.07;;
6852;SDS011;3465;42.144;24.722;2022-10-16T02:07:29;22.17;;;10.10;;
6852;SDS011;3465;42.144;24.722;2022-10-16T02:09:54;17.17;;;9.27;;
6852;SDS011;3465;42.144;24.722;2022-10-16T02:12:28;17.57;;;9.50;;
6852;SDS011;3465;42.144;24.722;2022-10-16T02:14:57;18.23;;;9.80;;
6852;SDS011;3465;42.144;24.722;2022-10-16T02:17:22;18.27;;;9.63;;
6852;SDS011;3465;42.144;24.722;2022-10-16T02:19:49;17.90;;;9.30;;
6852;SDS011;3465;42.144;24.722;2022-10-16T02:22:22;14.30;;;10.10;;
6852;SDS011;3465;42.144;24.722;2022-10-16T02:30:14;22.37;;;12.90;;
6852;SDS011;3465;42.144;24.722;2022-10-16T02:32:44;25.20;;;16.53;;
6852;SDS011;3465;42.144;24.722;2022-10-16T02:35:13;25.97;;;15.77;;
6852;SDS011;3465;42.144;24.722;2022-10-16T02:37:41;28.80;;;15.57;;
6852;SDS011;3465;42.144;24.722;2022-10-16T02:40:08;20.00;;;13.20;;
6852;SDS011;3465;42.144;24.722;2022-10-16T02:42:37;23.00;;;14.13;;
6852;SDS011;3465;42.144;24.722;2022-10-16T02:45:05;19.17;;;13.03;;
6852;SDS011;3465;42.144;24.722;2022-10-16T02:47:32;21.17;;;13.73;;
6852;SDS011;3465;42.144;24.722;2022-10-16T02:49:57;21.37;;;12.30;;
6852;SDS011;3465;42.144;24.722;2022-10-16T02:52:23;24.70;;;12.53;;
6852;SDS011;3465;42.144;24.722;2022-10-16T02:54:49;19.90;;;12.00;;
6852;SDS011;3465;42.144;24.722;2022-10-16T02:57:14;19.30;;;10.67;;
6852;SDS011;3465;42.144;24.722;2022-10-16T02:59:40;17.93;;;9.83;;
6852;SDS011;3465;42.144;24.722;2022-10-16T03:02:05;19.30;;;10.07;;
6852;SDS011;3465;42.144;24.722;2022-10-16T03:04:30;17.37;;;9.80;;
6852;SDS011;3465;42.144;24.722;2022-10-16T03:06:56;18.33;;;9.93;;
6852;SDS011;3465;42.144;24.722;2022-10-16T03:09:21;16.87;;;10.20;;
6852;SDS011;3465;42.144;24.722;2022-10-16T03:11:47;17.03;;;10.33;;
6852;SDS011;3465;42.144;24.722;2022-10-16T03:14:12;15.50;;;9.77;;
6852;SDS011;3465;42.144;24.722;2022-10-16T03:16:38;15.93;;;9.80;;
6852;SDS011;3465;42.144;24.722;2022-10-16T03:19:09;17.00;;;9.10;;
6852;SDS011;3465;42.144;24.722;2022-10-16T03:21:35;16.93;;;8.30;;
6852;SDS011;3465;42.144;24.722;2022-10-16T03:24:00;13.33;;;8.43;;
6852;SDS011;3465;42.144;24.722;2022-10-16T03:26:29;14.63;;;8.87;;
6852;SDS011;3465;42.144;24.722;2022-10-16T03:28:54;14.03;;;8.33;;
6852;SDS011;3465;42.144;24.722;2022-10-16T03:31:20;16.33;;;9.03;;
6852;SDS011;3465;42.144;24.722;2022-10-16T03:33:46;15.80;;;8.50;;
6852;SDS011;3465;42.144;24.722;2022-10-16T03:36:11;16.47;;;8.67;;
6852;SDS011;3465;42.144;24.722;2022-10-16T03:38:36;18.10;;;9.03;;
6852;SDS011;3465;42.144;24.722;2022-10-16T03:41:02;16.37;;;9.00;;
6852;SDS011;3465;42.144;24.722;2022-10-16T03:43:28;19.00;;;8.67;;
6852;SDS011;3465;42.144;24.722;2022-10-16T03:45:57;13.73;;;8.17;;
6852;SDS011;3465;42.144;24.722;2022-10-16T03:48:22;18.47;;;8.90;;
6852;SDS011;3465;42.144;24.722;2022-10-16T03:50:48;16.47;;;8.83;;
6852;SDS011;3465;42.144;24.722;2022-10-16T03:53:14;19.50;;;9.37;;
6852;SDS011;3465;42.144;24.722;2022-10-16T03:55:41;16.70;;;8.70;;
6852;SDS011;3465;42.144;24.722;2022-10-16T03:58:07;17.53;;;8.77;;
6852;SDS011;3465;42.144;24.722;2022-10-16T04:00:32;16.17;;;8.93;;
6852;SDS011;3465;42.144;24.722;2022-10-16T04:02:58;16.23;;;9.03;;
6852;SDS011;3465;42.144;24.722;2022-10-16T04:05:23;16.60;;;8.90;;
6852;SDS011;3465;42.144;24.722;2022-10-16T04:07:49;15.23;;;8.57;;
6852;SDS011;3465;42.144;24.722;2022-10-16T04:10:14;14.57;;;8.10;;
6852;SDS011;3465;42.144;24.722;2022-10-16T04:12:39;13.70;;;8.60;;
6852;SDS011;3465;42.144;24.722;2022-10-16T04:15:05;12.77;;;8.47;;
6852;SDS011;3465;42.144;24.722;2022-10-16T04:17:31;13.03;;;8.23;;
6852;SDS011;3465;42.144;24.722;2022-10-16T04:19:56;15.90;;;8.10;;
6852;SDS011;3465;42.144;24.722;2022-10-16T04:22:21;13.90;;;8.13;;
6852;SDS011;3465;42.144;24.722;2022-10-16T04:24:47;17.30;;;8.87;;
6852;SDS011;3465;42.144;24.722;2022-10-16T04:27:12;12.97;;;7.87;;
6852;SDS011;3465;42.144;24.722;2022-10-16T04:29:38;12.53;;;8.23;;
6852;SDS011;3465;42.144;24.722;2022-10-16T04:32:03;14.77;;;8.87;;
6852;SDS011;3465;42.144;24.722;2022-10-16T04:34:29;15.30;;;8.77;;
6852;SDS011;3465;42.144;24.722;2022-10-16T04:36:54;11.37;;;8.17;;
6852;SDS011;3465;42.144;24.722;2022-10-16T04:39:19;18.50;;;9.33;;
6852;SDS011;3465;42.144;24.722;2022-10-16T04:41:45;13.07;;;7.70;;
6852;SDS011;3465;42.144;24.722;2022-10-16T04:44:10;13.37;;;8.57;;
6852;SDS011;3465;42.144;24.722;2022-10-16T04:46:35;18.03;;;9.10;;
6852;SDS011;3465;42.144;24.722;2022-10-16T04:49:01;14.00;;;7.80;;
6852;SDS011;3465;42.144;24.722;2022-10-16T04:51:26;12.57;;;7.80;;
6852;SDS011;3465;42.144;24.722;2022-10-16T04:53:52;13.67;;;8.30;;
6852;SDS011;3465;42.144;24.722;2022-10-16T04:56:19;13.33;;;8.10;;
6852;SDS011;3465;42.144;24.722;2022-10-16T04:58:46;15.93;;;9.03;;
6852;SDS011;3465;42.144;24.722;2022-10-16T05:01:11;15.77;;;8.90;;
6852;SDS011;3465;42.144;24.722;2022-10-16T05:03:37;17.03;;;10.27;;
6852;SDS011;3465;42.144;24.722;2022-10-16T05:06:04;19.30;;;13.10;;
6852;SDS011;3465;42.144;24.722;2022-10-16T05:08:30;26.70;;;16.47;;
6852;SDS011;3465;42.144;24.722;2022-10-16T05:10:56;19.37;;;11.30;;
6852;SDS011;3465;42.144;24.722;2022-10-16T05:13:21;15.00;;;8.77;;
6852;SDS011;3465;42.144;24.722;2022-10-16T05:15:48;15.07;;;8.70;;
6852;SDS011;3465;42.144;24.722;2022-10-16T05:18:14;13.40;;;8.10;;
6852;SDS011;3465;42.144;24.722;2022-10-16T05:20:40;14.67;;;7.33;;
6852;SDS011;3465;42.144;24.722;2022-10-16T05:23:06;11.07;;;6.57;;
6852;SDS011;3465;42.144;24.722;2022-10-16T05:25:31;22.57;;;8.50;;
6852;SDS011;3465;42.144;24.722;2022-10-16T05:27:57;11.47;;;7.20;;
6852;SDS011;3465;42.144;24.722;2022-10-16T05:30:22;10.87;;;6.33;;
6852;SDS011;3465;42.144;24.722;2022-10-16T05:32:49;14.53;;;6.77;;
6852;SDS011;3465;42.144;24.722;2022-10-16T05:35:15;11.07;;;6.60;;
6852;SDS011;3465;42.144;24.722;2022-10-16T05:37:42;11.57;;;6.40;;
6852;SDS011;3465;42.144;24.722;2022-10-16T05:40:08;10.07;;;5.60;;
6852;SDS011;3465;42.144;24.722;2022-10-16T05:42:34;11.17;;;5.90;;
6852;SDS011;3465;42.144;24.722;2022-10-16T05:44:59;11.20;;;5.60;;
6852;SDS011;3465;42.144;24.722;2022-10-16T05:47:25;8.13;;;5.20;;
6852;SDS011;3465;42.144;24.722;2022-10-16T05:49:51;8.10;;;5.20;;
6852;SDS011;3465;42.144;24.722;2022-10-16T05:52:16;8.47;;;5.03;;
6852;SDS011;3465;42.144;24.722;2022-10-16T05:54:42;10.10;;;5.87;;
6852;SDS011;3465;42.144;24.722;2022-10-16T05:57:08;12.30;;;5.03;;
6852;SDS011;3465;42.144;24.722;2022-10-16T05:59:34;8.50;;;4.78;;
6852;SDS011;3465;42.144;24.722;2022-10-16T06:01:59;9.75;;;4.70;;
6852;SDS011;3465;42.144;24.722;2022-10-16T06:04:25;8.45;;;4.97;;
6852;SDS011;3465;42.144;24.722;2022-10-16T06:06:50;10.93;;;4.78;;
6852;SDS011;3465;42.144;24.722;2022-10-16T06:09:15;10.00;;;4.80;;
6852;SDS011;3465;42.144;24.722;2022-10-16T06:11:41;10.00;;;4.82;;
6852;SDS011;3465;42.144;24.722;2022-10-16T06:14:07;9.70;;;5.18;;
6852;SDS011;3465;42.144;24.722;2022-10-16T06:16:34;8.48;;;4.65;;
6852;SDS011;3465;42.144;24.722;2022-10-16T06:19:01;11.63;;;5.25;;
6852;SDS011;3465;42.144;24.722;2022-10-16T06:21:29;10.15;;;5.32;;
6852;SDS011;3465;42.144;24.722;2022-10-16T06:23:54;8.30;;;5.68;;
6852;SDS011;3465;42.144;24.722;2022-10-16T06:26:21;10.25;;;6.15;;
6852;SDS011;3465;42.144;24.722;2022-10-16T06:28:49;11.95;;;6.13;;
6852;SDS011;3465;42.144;24.722;2022-10-16T06:31:15;8.60;;;5.30;;
6852;SDS011;3465;42.144;24.722;2022-10-16T06:33:41;9.73;;;5.25;;
6852;SDS011;3465;42.144;24.722;2022-10-16T06:36:12;6.82;;;4.85;;
6852;SDS011;3465;42.144;24.722;2022-10-16T06:38:39;8.32;;;5.30;;
6852;SDS011;3465;42.144;24.722;2022-10-16T06:41:05;7.40;;;5.03;;
6852;SDS011;3465;42.144;24.722;2022-10-16T06:43:32;6.40;;;4.95;;
6852;SDS011;3465;42.144;24.722;2022-10-16T06:45:58;8.95;;;4.68;;
6852;SDS011;3465;42.144;24.722;2022-10-16T06:48:25;8.27;;;5.10;;
6852;SDS011;3465;42.144;24.722;2022-10-16T06:50:57;8.75;;;4.50;;
6852;SDS011;3465;42.144;24.722;2022-10-16T06:53:24;8.52;;;5.40;;
6852;SDS011;3465;42.144;24.722;2022-10-16T06:55:50;12.68;;;5.80;;
6852;SDS011;3465;42.144;24.722;2022-10-16T06:58:16;6.18;;;4.38;;
6852;SDS011;3465;42.144;24.722;2022-10-16T07:00:41;11.40;;;4.68;;
6852;SDS011;3465;42.144;24.722;2022-10-16T07:03:06;14.85;;;4.75;;
6852;SDS011;3465;42.144;24.722;2022-10-16T07:05:36;12.55;;;4.55;;
6852;SDS011;3465;42.144;24.722;2022-10-16T07:08:02;7.38;;;4.38;;
6852;SDS011;3465;42.144;24.722;2022-10-16T07:10:30;7.30;;;4.18;;
6852;SDS011;3465;42.144;24.722;2022-10-16T07:12:56;8.63;;;3.85;;
6852;SDS011;3465;42.144;24.722;2022-10-16T07:15:21;8.20;;;3.97;;
6852;SDS011;3465;42.144;24.722;2022-10-16T07:17:47;7.43;;;3.90;;
6852;SDS011;3465;42.144;24.722;2022-10-16T07:20:12;10.05;;;4.32;;
6852;SDS011;3465;42.144;24.722;2022-10-16T07:22:37;10.43;;;4.22;;
6852;SDS011;3465;42.144;24.722;2022-10-16T07:25:03;9.43;;;4.65;;
6852;SDS011;3465;42.144;24.722;2022-10-16T07:27:28;9.00;;;4.22;;
6852;SDS011;3465;42.144;24.722;2022-10-16T07:29:54;7.28;;;4.22;;
6852;SDS011;3465;42.144;24.722;2022-10-16T07:32:19;7.63;;;4.40;;
6852;SDS011;3465;42.144;24.722;2022-10-16T07:34:45;15.82;;;4.65;;
6852;SDS011;3465;42.144;24.722;2022-10-16T07:37:10;9.60;;;4.32;;
6852;SDS011;3465;42.144;24.722;2022-10-16T07:39:36;7.90;;;4.50;;
6852;SDS011;3465;42.144;24.722;2022-10-16T07:42:01;10.00;;;4.38;;
6852;SDS011;3465;42.144;24.722;2022-10-16T07:44:27;6.57;;;4.10;;
6852;SDS011;3465;42.144;24.722;2022-10-16T07:46:52;8.90;;;4.22;;
6852;SDS011;3465;42.144;24.722;2022-10-16T07:49:18;9.48;;;4.90;;
6852;SDS011;3465;42.144;24.722;2022-10-16T07:51:43;13.45;;;4.43;;
6852;SDS011;3465;42.144;24.722;2022-10-16T07:54:09;8.55;;;4.15;;
6852;SDS011;3465;42.144;24.722;2022-10-16T07:56:35;6.55;;;4.10;;
6852;SDS011;3465;42.144;24.722;2022-10-16T07:59:00;8.05;;;4.35;;
6852;SDS011;3465;42.144;24.722;2022-10-16T08:01:26;7.97;;;3.70;;
6852;SDS011;3465;42.144;24.722;2022-10-16T08:03:52;5.55;;;4.10;;
6852;SDS011;3465;42.144;24.722;2022-10-16T08:06:18;5.05;;;3.80;;
6852;SDS011;3465;42.144;24.722;2022-10-16T08:08:45;8.20;;;4.03;;
6852;SDS011;3465;42.144;24.722;2022-10-16T08:11:11;15.40;;;4.28;;
6852;SDS011;3465;42.144;24.722;2022-10-16T08:13:36;6.63;;;4.55;;
6852;SDS011;3465;42.144;24.722;2022-10-16T08:16:02;9.20;;;4.20;;
6852;SDS011;3465;42.144;24.722;2022-10-16T08:18:33;8.60;;;4.30;;
6852;SDS011;3465;42.144;24.722;2022-10-16T08:21:08;10.07;;;4.22;;
6852;SDS011;3465;42.144;24.722;2022-10-16T08:23:38;6.18;;;4.20;;
6852;SDS011;3465;42.144;24.722;2022-10-16T08:26:05;7.40;;;4.22;;
6852;SDS011;3465;42.144;24.722;2022-10-16T08:28:32;10.55;;;4.68;;
6852;SDS011;3465;42.144;24.722;2022-10-16T08:31:14;10.13;;;4.45;;
6852;SDS011;3465;42.144;24.722;2022-10-16T08:33:41;9.82;;;4.10;;
6852;SDS011;3465;42.144;24.722;2022-10-16T08:36:08;9.05;;;3.97;;
6852;SDS011;3465;42.144;24.722;2022-10-16T08:38:35;8.23;;;4.07;;
6852;SDS011;3465;42.144;24.722;2022-10-16T08:41:03;10.10;;;4.63;;
6852;SDS011;3465;42.144;24.722;2022-10-16T08:49:14;8.07;;;4.30;;
6852;SDS011;3465;42.144;24.722;2022-10-16T08:51:40;10.77;;;4.28;;
6852;SDS011;3465;42.144;24.722;2022-10-16T08:56:44;8.88;;;4.20;;
6852;SDS011;3465;42.144;24.722;2022-10-16T08:59:09;8.23;;;3.83;;
6852;SDS011;3465;42.144;24.722;2022-10-16T09:01:40;5.75;;;4.10;;
6852;SDS011;3465;42.144;24.722;2022-10-16T09:07:04;4.78;;;3.40;;
6852;SDS011;3465;42.144;24.722;2022-10-16T09:15:29;6.35;;;3.42;;
6852;SDS011;3465;42.144;24.722;2022-10-16T09:25:55;8.05;;;3.75;;
6852;SDS011;3465;42.144;24.722;2022-10-16T09:28:23;6.28;;;3.70;;
6852;SDS011;3465;42.144;24.722;2022-10-16T09:30:48;5.63;;;3.35;;
6852;SDS011;3465;42.144;24.722;2022-10-16T09:33:15;8.10;;;3.90;;
6852;SDS011;3465;42.144;24.722;2022-10-16T09:35:45;6.05;;;3.42;;
6852;SDS011;3465;42.144;24.722;2022-10-16T09:38:32;7.72;;;3.70;;
6852;SDS011;3465;42.144;24.722;2022-10-16T09:41:01;4.63;;;3.42;;
6852;SDS011;3465;42.144;24.722;2022-10-16T09:43:57;5.22;;;3.58;;
6852;SDS011;3465;42.144;24.722;2022-10-16T09:49:04;3.90;;;3.15;;
6852;SDS011;3465;42.144;24.722;2022-10-16T09:51:47;8.80;;;3.90;;
6852;SDS011;3465;42.144;24.722;2022-10-16T09:54:14;6.57;;;3.65;;
6852;SDS011;3465;42.144;24.722;2022-10-16T09:56:46;7.32;;;3.20;;
6852;SDS011;3465;42.144;24.722;2022-10-16T09:59:20;5.30;;;3.15;;
6852;SDS011;3465;42.144;24.722;2022-10-16T10:01:50;7.63;;;3.50;;
6852;SDS011;3465;42.144;24.722;2022-10-16T10:04:17;7.28;;;3.53;;
6852;SDS011;3465;42.144;24.722;2022-10-16T10:06:50;6.47;;;3.20;;
6852;SDS011;3465;42.144;24.722;2022-10-16T10:12:04;4.32;;;3.00;;
6852;SDS011;3465;42.144;24.722;2022-10-16T10:17:49;5.35;;;2.90;;
6852;SDS011;3465;42.144;24.722;2022-10-16T10:23:31;5.18;;;3.03;;
6852;SDS011;3465;42.144;24.722;2022-10-16T10:34:03;5.68;;;3.00;;
6852;SDS011;3465;42.144;24.722;2022-10-16T10:36:34;6.75;;;3.28;;
6852;SDS011;3465;42.144;24.722;2022-10-16T10:39:20;4.70;;;3.15;;
6852;SDS011;3465;42.144;24.722;2022-10-16T11:00:19;6.05;;;3.17;;
6852;SDS011;3465;42.144;24.722;2022-10-16T11:03:02;5.38;;;3.00;;
6852;SDS011;3465;42.144;24.722;2022-10-16T11:05:37;7.32;;;3.30;;
6852;SDS011;3465;42.144;24.722;2022-10-16T11:08:17;4.85;;;3.10;;
6852;SDS011;3465;42.144;24.722;2022-10-16T11:10:51;5.28;;;3.22;;
6852;SDS011;3465;42.144;24.722;2022-10-16T11:16:43;6.03;;;3.33;;
6852;SDS011;3465;42.144;24.722;2022-10-16T11:30:29;10.70;;;4.32;;
6852;SDS011;3465;42.144;24.722;2022-10-16T11:33:00;7.63;;;3.58;;
6852;SDS011;3465;42.144;24.722;2022-10-16T11:38:15;6.43;;;2.90;;
6852;SDS011;3465;42.144;24.722;2022-10-16T11:40:47;5.70;;;3.53;;
6852;SDS011;3465;42.144;24.722;2022-10-16T11:43:19;6.38;;;3.30;;
6852;SDS011;3465;42.144;24.722;2022-10-16T11:45:51;5.97;;;3.00;;
6852;SDS011;3465;42.144;24.722;2022-10-16T11:50:53;4.97;;;2.70;;
6852;SDS011;3465;42.144;24.722;2022-10-16T11:56:20;5.03;;;3.15;;
6852;SDS011;3465;42.144;24.722;2022-10-16T11:58:55;6.15;;;3.60;;
6852;SDS011;3465;42.144;24.722;2022-10-16T12:06:46;4.22;;;3.05;;
6852;SDS011;3465;42.144;24.722;2022-10-16T12:09:15;3.97;;;2.90;;
6852;SDS011;3465;42.144;24.722;2022-10-16T12:11:44;6.88;;;3.33;;
6852;SDS011;3465;42.144;24.722;2022-10-16T12:16:38;6.13;;;3.22;;
6852;SDS011;3465;42.144;24.722;2022-10-16T12:19:16;3.88;;;3.05;;
6852;SDS011;3465;42.144;24.722;2022-10-16T12:21:43;5.55;;;3.00;;
6852;SDS011;3465;42.144;24.722;2022-10-16T12:24:32;6.22;;;3.50;;
6852;SDS011;3465;42.144;24.722;2022-10-16T12:27:01;5.47;;;3.42;;
6852;SDS011;3465;42.144;24.722;2022-10-16T12:32:02;4.07;;;3.00;;
6852;SDS011;3465;42.144;24.722;2022-10-16T12:34:39;7.90;;;3.65;;
6852;SDS011;3465;42.144;24.722;2022-10-16T12:37:13;8.98;;;4.00;;
6852;SDS011;3465;42.144;24.722;2022-10-16T12:39:50;4.53;;;3.33;;
6852;SDS011;3465;42.144;24.722;2022-10-16T12:42:23;5.88;;;3.47;;
6852;SDS011;3465;42.144;24.722;2022-10-16T12:44:51;4.50;;;3.35;;
6852;SDS011;3465;42.144;24.722;2022-10-16T12:47:37;6.70;;;3.67;;
6852;SDS011;3465;42.144;24.722;2022-10-16T12:50:26;7.53;;;3.83;;
6852;SDS011;3465;42.144;24.722;2022-10-16T12:52:58;8.48;;;3.50;;
6852;SDS011;3465;42.144;24.722;2022-10-16T12:55:24;9.95;;;4.30;;
6852;SDS011;3465;42.144;24.722;2022-10-16T13:08:22;7.47;;;4.32;;
6852;SDS011;3465;42.144;24.722;2022-10-16T13:13:36;5.80;;;4.18;;
6852;SDS011;3465;42.144;24.722;2022-10-16T13:19:02;7.65;;;4.35;;
6852;SDS011;3465;42.144;24.722;2022-10-16T13:29:20;4.80;;;3.88;;
6852;SDS011;3465;42.144;24.722;2022-10-16T13:31:49;8.75;;;4.30;;
6852;SDS011;3465;42.144;24.722;2022-10-16T13:34:16;10.00;;;4.35;;
6852;SDS011;3465;42.144;24.722;2022-10-16T13:36:46;6.88;;;4.28;;
6852;SDS011;3465;42.144;24.722;2022-10-16T13:39:25;8.45;;;4.20;;
6852;SDS011;3465;42.144;24.722;2022-10-16T13:42:03;7.95;;;3.90;;
6852;SDS011;3465;42.144;24.722;2022-10-16T13:44:35;6.78;;;3.80;;
6852;SDS011;3465;42.144;24.722;2022-10-16T13:47:10;6.30;;;3.60;;
6852;SDS011;3465;42.144;24.722;2022-10-16T13:49:41;6.38;;;3.60;;
6852;SDS011;3465;42.144;24.722;2022-10-16T13:52:15;8.02;;;3.97;;
6852;SDS011;3465;42.144;24.722;2022-10-16T13:54:43;6.00;;;4.00;;
6852;SDS011;3465;42.144;24.722;2022-10-16T13:57:11;7.28;;;4.60;;
6852;SDS011;3465;42.144;24.722;2022-10-16T13:59:38;9.07;;;4.07;;
6852;SDS011;3465;42.144;24.722;2022-10-16T14:05:03;6.47;;;3.95;;
6852;SDS011;3465;42.144;24.722;2022-10-16T14:07:33;8.30;;;4.30;;
6852;SDS011;3465;42.144;24.722;2022-10-16T14:10:06;5.85;;;3.92;;
6852;SDS011;3465;42.144;24.722;2022-10-16T14:12:44;4.85;;;3.72;;
6852;SDS011;3465;42.144;24.722;2022-10-16T14:15:16;7.07;;;4.10;;
6852;SDS011;3465;42.144;24.722;2022-10-16T14:17:44;8.60;;;4.35;;
6852;SDS011;3465;42.144;24.722;2022-10-16T14:20:14;8.77;;;4.97;;
6852;SDS011;3465;42.144;24.722;2022-10-16T14:22:41;16.05;;;4.60;;
6852;SDS011;3465;42.144;24.722;2022-10-16T14:27:44;7.72;;;4.20;;
6852;SDS011;3465;42.144;24.722;2022-10-16T14:30:15;7.07;;;4.22;;
6852;SDS011;3465;42.144;24.722;2022-10-16T14:32:56;8.13;;;5.05;;
6852;SDS011;3465;42.144;24.722;2022-10-16T14:35:23;7.05;;;4.72;;
6852;SDS011;3465;42.144;24.722;2022-10-16T14:38:00;7.35;;;4.43;;
6852;SDS011;3465;42.144;24.722;2022-10-16T14:40:31;9.93;;;4.28;;
6852;SDS011;3465;42.144;24.722;2022-10-16T14:42:59;11.15;;;4.90;;
6852;SDS011;3465;42.144;24.722;2022-10-16T14:45:27;8.02;;;4.22;;
6852;SDS011;3465;42.144;24.722;2022-10-16T14:47:56;11.50;;;4.32;;
6852;SDS011;3465;42.144;24.722;2022-10-16T14:50:23;10.80;;;4.20;;
6852;SDS011;3465;42.144;24.722;2022-10-16T14:52:52;7.65;;;4.22;;
6852;SDS011;3465;42.144;24.722;2022-10-16T14:55:18;9.63;;;4.50;;
6852;SDS011;3465;42.144;24.722;2022-10-16T14:57:44;8.32;;;4.60;;
6852;SDS011;3465;42.144;24.722;2022-10-16T15:02:48;5.05;;;3.70;;
6852;SDS011;3465;42.144;24.722;2022-10-16T15:07:44;8.32;;;3.80;;
6852;SDS011;3465;42.144;24.722;2022-10-16T15:10:11;8.27;;;4.07;;
6852;SDS011;3465;42.144;24.722;2022-10-16T15:12:38;6.93;;;4.10;;
6852;SDS011;3465;42.144;24.722;2022-10-16T15:15:37;7.15;;;4.53;;
6852;SDS011;3465;42.144;24.722;2022-10-16T15:17:58;8.02;;;3.72;;
6852;SDS011;3465;42.144;24.722;2022-10-16T15:20:26;9.15;;;4.15;;
6852;SDS011;3465;42.144;24.722;2022-10-16T15:22:53;7.55;;;4.25;;
6852;SDS011;3465;42.144;24.722;2022-10-16T15:27:53;8.93;;;4.18;;
6852;SDS011;3465;42.144;24.722;2022-10-16T15:30:18;8.18;;;4.22;;
6852;SDS011;3465;42.144;24.722;2022-10-16T15:32:44;12.40;;;4.18;;
6852;SDS011;3465;42.144;24.722;2022-10-16T15:35:09;6.95;;;4.00;;
6852;SDS011;3465;42.144;24.722;2022-10-16T15:37:35;6.93;;;4.00;;
6852;SDS011;3465;42.144;24.722;2022-10-16T15:40:00;7.45;;;4.20;;
6852;SDS011;3465;42.144;24.722;2022-10-16T15:42:25;9.90;;;4.30;;
6852;SDS011;3465;42.144;24.722;2022-10-16T15:44:54;11.13;;;4.90;;
6852;SDS011;3465;42.144;24.722;2022-10-16T15:47:19;10.20;;;4.53;;
6852;SDS011;3465;42.144;24.722;2022-10-16T15:49:44;11.55;;;4.88;;
6852;SDS011;3465;42.144;24.722;2022-10-16T15:52:10;8.73;;;4.60;;
6852;SDS011;3465;42.144;24.722;2022-10-16T15:54:36;8.88;;;4.57;;
6852;SDS011;3465;42.144;24.722;2022-10-16T15:57:01;12.73;;;4.60;;
6852;SDS011;3465;42.144;24.722;2022-10-16T15:59:26;10.98;;;4.50;;
6852;SDS011;3465;42.144;24.722;2022-10-16T16:01:52;8.77;;;4.20;;
6852;SDS011;3465;42.144;24.722;2022-10-16T16:04:17;10.68;;;4.80;;
6852;SDS011;3465;42.144;24.722;2022-10-16T16:06:43;12.18;;;4.68;;
6852;SDS011;3465;42.144;24.722;2022-10-16T16:09:12;10.65;;;5.13;;
6852;SDS011;3465;42.144;24.722;2022-10-16T16:11:38;13.10;;;5.35;;
6852;SDS011;3465;42.144;24.722;2022-10-16T16:14:05;11.80;;;5.85;;
6852;SDS011;3465;42.144;24.722;2022-10-16T16:16:31;8.88;;;5.20;;
6852;SDS011;3465;42.144;24.722;2022-10-16T16:19:01;13.73;;;5.32;;
6852;SDS011;3465;42.144;24.722;2022-10-16T16:21:27;10.53;;;4.87;;
6852;SDS011;3465;42.144;24.722;2022-10-16T16:23:53;17.20;;;5.40;;
6852;SDS011;3465;42.144;24.722;2022-10-16T16:26:22;15.53;;;5.27;;
6852;SDS011;3465;42.144;24.722;2022-10-16T16:28:52;12.40;;;5.07;;
6852;SDS011;3465;42.144;24.722;2022-10-16T16:31:19;9.00;;;5.37;;
6852;SDS011;3465;42.144;24.722;2022-10-16T16:33:46;7.43;;;4.77;;
6852;SDS011;3465;42.144;24.722;2022-10-16T16:36:11;11.67;;;4.87;;
6852;SDS011;3465;42.144;24.722;2022-10-16T16:38:37;13.93;;;5.27;;
6852;SDS011;3465;42.144;24.722;2022-10-16T16:43:37;10.23;;;4.80;;
6852;SDS011;3465;42.144;24.722;2022-10-16T16:46:02;8.40;;;5.10;;
6852;SDS011;3465;42.144;24.722;2022-10-16T16:48:28;7.97;;;4.80;;
6852;SDS011;3465;42.144;24.722;2022-10-16T16:50:54;9.50;;;5.60;;
6852;SDS011;3465;42.144;24.722;2022-10-16T16:53:19;11.77;;;5.30;;
6852;SDS011;3465;42.144;24.722;2022-10-16T16:55:45;13.90;;;5.63;;
6852;SDS011;3465;42.144;24.722;2022-10-16T16:58:10;12.23;;;5.10;;
6852;SDS011;3465;42.144;24.722;2022-10-16T17:00:35;11.83;;;5.73;;
6852;SDS011;3465;42.144;24.722;2022-10-16T17:03:01;10.53;;;4.90;;
6852;SDS011;3465;42.144;24.722;2022-10-16T17:05:26;11.37;;;5.53;;
6852;SDS011;3465;42.144;24.722;2022-10-16T17:07:52;13.13;;;6.17;;
6852;SDS011;3465;42.144;24.722;2022-10-16T17:10:17;15.10;;;6.90;;
6852;SDS011;3465;42.144;24.722;2022-10-16T17:12:43;15.07;;;6.47;;
6852;SDS011;3465;42.144;24.722;2022-10-16T17:15:08;12.37;;;6.83;;
6852;SDS011;3465;42.144;24.722;2022-10-16T17:17:34;14.30;;;6.40;;
6852;SDS011;3465;42.144;24.722;2022-10-16T17:20:03;15.10;;;6.90;;
6852;SDS011;3465;42.144;24.722;2022-10-16T17:22:28;13.67;;;5.90;;
6852;SDS011;3465;42.144;24.722;2022-10-16T17:24:54;12.90;;;5.93;;
6852;SDS011;3465;42.144;24.722;2022-10-16T17:27:19;17.03;;;6.83;;
6852;SDS011;3465;42.144;24.722;2022-10-16T17:29:49;12.63;;;6.87;;
6852;SDS011;3465;42.144;24.722;2022-10-16T17:32:14;20.27;;;7.20;;
6852;SDS011;3465;42.144;24.722;2022-10-16T17:34:40;14.77;;;6.33;;
6852;SDS011;3465;42.144;24.722;2022-10-16T17:37:05;9.43;;;6.20;;